Terminal Aerodrome Forecast
Issued by NWS

Current Version | Previous Version | Text Only | Print | Product List | Glossary On
Versions: 1 2 3 4 5 6 7 8 9 10 11 12
638
FTUS41 KLWX 271130
TAFMTN
TAF
KMTN 271130Z 2712/2812 14004KT P6SM SKC
     FM271800 14008KT P6SM SCT050
     FM280000 18009KT P6SM SCT080
     FM280700 18005KT P6SM FEW080 SCT200=

USA.gov is the U.S. government's official web portal to all federal, state and local government web resources and services.